Terminal Aerodrome Forecast
Issued by NWS

Home | Current Version | Previous Version | Text Only | Print | Product List | Glossary On
Versions: 1 2 3 4 5 6 7 8 9 10 11 12
000
FTUS45 KREV 240539
TAFMMH
TAF
KMMH 240539Z 2406/2506 24007KT P6SM SCT100 BKN180
     FM242300 28010KT P6SM SCT140 BKN200=

USA.gov is the U.S. government's official web portal to all federal, state and local government web resources and services.